Time;durP1;ratioP1;P1;durP2;ratioP2;P2;SDS_P1;SDS_P2;PMS_P1;PMS_P2;Temp;Humidity;BMP_temperature;BMP_pressure;BME280_temperature;BME280_humidity;BME280_pressure;Samples;Min_cycle;Max_cycle;Signal;HPM_P1;HPM_P2
2023/05/30 00:01:07;;;;;;;6.28;4.60;;;;;;;25.08;54.40;100962.13;5073406;28;20052;-57
2023/05/30 00:03:37;;;;;;;6.70;5.43;;;;;;;25.06;54.26;100959.56;5073493;28;20048;-58
2023/05/30 00:06:05;;;;;;;5.35;4.20;;;;;;;25.07;54.39;100957.69;5073609;28;20052;-58
2023/05/30 00:08:32;;;;;;;5.90;4.85;;;;;;;25.05;54.44;100957.88;5073468;28;20056;-58
2023/05/30 00:11:00;;;;;;;6.72;4.55;;;;;;;25.06;54.24;100964.13;5073615;28;20419;-56
2023/05/30 00:13:33;;;;;;;5.93;4.65;;;;;;;25.06;54.37;100964.97;5073851;28;20389;-56
2023/05/30 00:16:03;;;;;;;6.32;5.25;;;;;;;25.05;54.47;100957.03;5073626;28;20048;-55
2023/05/30 00:18:34;;;;;;;6.40;4.95;;;;;;;25.04;54.40;100958.91;5073031;28;20048;-56
2023/05/30 00:21:03;;;;;;;6.60;5.20;;;;;;;25.05;54.57;100962.44;5073321;28;20049;-57
2023/05/30 00:23:31;;;;;;;5.50;4.78;;;;;;;25.04;54.32;100967.03;5073664;28;20400;-57
2023/05/30 00:26:03;;;;;;;6.75;4.63;;;;;;;25.05;54.25;100966.00;5073429;28;20530;-57
2023/05/30 00:28:30;;;;;;;5.47;4.70;;;;;;;25.03;54.46;100962.59;5073606;28;20477;-57
2023/05/30 00:30:58;;;;;;;6.30;4.45;;;;;;;25.05;54.25;100963.28;5071871;28;20048;-56
2023/05/30 00:33:26;;;;;;;6.50;5.15;;;;;;;25.04;54.46;100960.75;5074977;28;20051;-58
2023/05/30 00:35:53;;;;;;;6.40;4.75;;;;;;;25.04;54.79;100949.94;5077401;28;20055;-58
2023/05/30 00:38:20;;;;;;;6.05;4.57;;;;;;;25.03;54.57;100953.63;5077574;28;20040;-58
2023/05/30 00:40:48;;;;;;;6.20;4.78;;;;;;;25.03;54.45;100957.19;5077529;28;20041;-56
2023/05/30 00:43:18;;;;;;;6.97;5.30;;;;;;;25.03;54.28;100968.00;5077489;28;20492;-55
2023/05/30 00:45:50;;;;;;;6.18;4.72;;;;;;;25.02;54.51;100958.19;5075839;28;20059;-54
2023/05/30 00:48:17;;;;;;;5.95;4.70;;;;;;;25.03;54.29;100953.63;5077705;28;20045;-55
2023/05/30 00:50:47;;;;;;;5.95;5.22;;;;;;;25.03;54.46;100956.34;5077576;28;20056;-57
2023/05/30 00:53:15;;;;;;;6.10;4.60;;;;;;;25.02;54.53;100951.94;5076936;28;20045;-58
2023/05/30 00:55:43;;;;;;;6.55;4.90;;;;;;;25.02;54.67;100947.38;5076934;28;20361;-58
2023/05/30 00:58:11;;;;;;;6.53;5.28;;;;;;;25.03;54.41;100948.22;5075939;28;20044;-58
2023/05/30 01:00:39;;;;;;;6.70;5.07;;;;;;;25.02;54.35;100951.94;5076136;28;20044;-55
2023/05/30 01:03:08;;;;;;;6.68;5.10;;;;;;;25.02;54.56;100951.94;5076789;28;20048;-55
2023/05/30 01:05:36;;;;;;;5.30;4.68;;;;;;;25.02;54.34;100957.34;5077062;28;20051;-55
2023/05/30 01:08:03;;;;;;;6.05;5.45;;;;;;;25.01;54.31;100951.09;5076123;28;20044;-55
2023/05/30 01:10:32;;;;;;;6.68;5.07;;;;;;;25.00;54.42;100952.13;5075878;28;20052;-57
2023/05/30 01:13:27;;;;;;;6.40;5.40;;;;;;;25.02;54.33;100954.66;5076960;28;20476;-58
2023/05/30 01:16:01;;;;;;;5.72;5.05;;;;;;;25.01;54.59;100952.97;5075773;28;20048;-57
2023/05/30 01:18:34;;;;;;;6.85;5.25;;;;;;;25.01;54.39;100955.66;5076736;28;20052;-57
2023/05/30 01:21:07;;;;;;;;;;;;;;;24.98;54.49;100959.56;5076387;28;20107;-57
2023/05/30 01:23:52;;;;;;;7.38;5.55;;;;;;;24.99;54.51;100953.09;5076735;28;19920;-57
2023/05/30 01:26:56;;;;;;;6.32;5.13;;;;;;;25.00;54.64;100959.41;5076729;28;20053;-57
2023/05/30 01:29:25;;;;;;;6.82;4.97;;;;;;;24.99;54.58;100950.41;5075289;28;20048;-57
2023/05/30 01:31:55;;;;;;;6.30;5.00;;;;;;;24.99;54.71;100950.41;5075717;28;20048;-54
2023/05/30 01:34:23;;;;;;;7.10;5.07;;;;;;;25.00;55.08;100962.09;5076526;28;20503;-55
2023/05/30 01:36:51;;;;;;;6.97;5.63;;;;;;;25.01;55.27;100964.63;5075320;28;20063;-55
2023/05/30 01:39:18;;;;;;;5.80;4.20;;;;;;;25.01;55.16;100975.47;5076280;28;20055;-55
2023/05/30 01:41:56;;;;;;;6.38;5.32;;;;;;;25.02;55.25;100979.88;5075412;28;20056;-56
2023/05/30 01:44:28;;;;;;;6.57;4.88;;;;;;;25.01;55.26;100975.47;5075466;28;20048;-57
2023/05/30 01:47:14;;;;;;;6.75;5.00;;;;;;;25.01;55.27;100978.19;5076732;28;20061;-57
2023/05/30 01:50:05;;;;;;;6.18;4.70;;;;;;;25.00;55.12;100973.78;5074915;28;20052;-58
2023/05/30 01:52:36;;;;;;;7.35;5.05;;;;;;;25.02;55.16;100981.72;5075733;28;20515;-57
2023/05/30 01:55:06;;;;;;;6.43;4.90;;;;;;;25.02;55.51;100981.72;5074965;28;20048;-57
2023/05/30 01:57:48;;;;;;;7.35;5.10;;;;;;;25.04;55.52;100987.84;5075082;28;20048;-56
2023/05/30 02:00:21;;;;;;;6.47;5.18;;;;;;;25.02;55.72;100974.44;5075158;28;20048;-56
2023/05/30 02:02:48;;;;;;;7.38;4.93;;;;;;;25.01;55.48;100972.78;5074980;28;20060;-56
2023/05/30 02:05:16;;;;;;;7.05;5.32;;;;;;;25.01;55.41;100964.63;5075923;28;20461;-57
2023/05/30 02:07:43;;;;;;;6.80;5.30;;;;;;;25.01;55.52;100969.22;5074829;28;20407;-57
2023/05/30 02:10:10;;;;;;;6.10;4.53;;;;;;;25.00;55.36;100968.38;5074524;28;20064;-55
2023/05/30 02:12:46;;;;;;;5.65;4.65;;;;;;;25.01;55.22;100978.19;5082602;28;20506;-55
2023/05/30 02:15:14;;;;;;;6.75;5.10;;;;;;;24.99;55.45;100969.38;5075014;28;20064;-54
2023/05/30 02:17:42;;;;;;;6.25;5.35;;;;;;;25.00;55.32;100973.78;5074670;28;20044;-55
2023/05/30 02:20:09;;;;;;;5.63;4.90;;;;;;;25.00;55.17;100979.22;5074672;28;20044;-57
2023/05/30 02:22:37;;;;;;;6.43;4.78;;;;;;;24.99;55.11;100972.06;5075573;28;20047;-58
2023/05/30 02:25:05;;;;;;;5.88;5.07;;;;;;;25.00;55.36;100981.91;5075506;28;20052;-58
2023/05/30 02:27:32;;;;;;;8.57;5.22;;;;;;;25.00;55.41;100971.06;5073632;28;20055;-56
2023/05/30 02:30:01;;;;;;;6.43;4.68;;;;;;;24.99;55.47;100969.38;5075152;28;20055;-56
2023/05/30 02:32:28;;;;;;;7.50;5.03;;;;;;;25.00;55.46;100975.66;5075195;28;20040;-57
2023/05/30 02:34:55;;;;;;;7.75;5.13;;;;;;;24.99;55.45;100985.63;5074364;28;20059;-57
2023/05/30 02:37:23;;;;;;;7.82;5.03;;;;;;;24.99;55.18;100988.31;5074948;28;20052;-57
2023/05/30 02:39:50;;;;;;;6.70;4.80;;;;;;;24.98;55.44;100978.50;5074246;28;20053;-57
2023/05/30 02:42:17;;;;;;;7.10;5.13;;;;;;;24.98;55.38;100974.94;5075373;28;20385;-55
2023/05/30 02:44:45;;;;;;;6.45;5.25;;;;;;;24.98;55.14;100974.94;5057307;28;20044;-55
2023/05/30 02:47:13;;;;;;;7.03;4.43;;;;;;;24.99;55.19;100971.22;5073384;28;20421;-55
2023/05/30 02:49:48;;;;;;;6.70;5.00;;;;;;;24.98;55.16;100970.38;5073289;28;20408;-56
2023/05/30 02:52:16;;;;;;;7.85;4.85;;;;;;;24.99;55.27;100982.91;5073203;28;20044;-57
2023/05/30 02:54:52;;;;;;;7.07;4.43;;;;;;;24.99;55.19;100980.19;5074012;28;20412;-57
2023/05/30 02:57:34;;;;;;;5.70;4.82;;;;;;;24.99;55.47;100984.75;5081753;28;20404;-57
2023/05/30 03:00:35;;;;;;;6.78;5.30;;;;;;;24.98;55.14;100981.22;5075759;28;20048;-57
2023/05/30 03:03:17;;;;;;;6.38;5.40;;;;;;;24.98;55.28;100985.78;5073907;28;20059;-57
2023/05/30 03:05:49;;;;;;;7.33;5.03;;;;;;;24.97;55.28;100979.53;5073720;28;20051;-57
2023/05/30 03:08:43;;;;;;;6.30;5.15;;;;;;;24.97;55.17;100987.66;5073730;28;20048;-57
2023/05/30 03:11:11;;;;;;;5.45;4.40;;;;;;;24.97;55.01;100984.94;5073361;28;20044;-55
2023/05/30 03:13:41;;;;;;;6.30;5.10;;;;;;;24.96;55.16;100980.56;5074672;28;20361;-54
2023/05/30 03:16:08;;;;;;;6.25;5.60;;;;;;;24.96;55.21;100982.41;5073148;28;20059;-55
2023/05/30 03:18:36;;;;;;;7.70;5.53;;;;;;;24.96;54.92;100990.53;5074654;28;20381;-56
2023/05/30 03:21:04;;;;;;;5.50;4.72;;;;;;;24.96;54.99;100988.69;5073336;28;20063;-55
2023/05/30 03:23:32;;;;;;;5.03;4.53;;;;;;;24.95;54.99;100995.06;5074354;28;20051;-55
2023/05/30 03:25:59;;;;;;;5.57;5.00;;;;;;;24.95;55.25;100994.25;5074536;28;20052;-55
2023/05/30 03:28:26;;;;;;;5.63;4.88;;;;;;;24.95;54.90;100992.38;5073099;28;20540;-55
2023/05/30 03:31:18;;;;;;;7.65;5.07;;;;;;;24.95;54.99;100989.66;5073767;28;20488;-57
2023/05/30 03:33:46;;;;;;;6.10;4.75;;;;;;;24.96;54.82;100995.97;5074076;28;20400;-57
2023/05/30 03:36:16;;;;;;;6.55;5.25;;;;;;;24.93;54.91;100989.00;5072085;28;20052;-54
2023/05/30 03:38:45;;;;;;;7.97;4.97;;;;;;;24.92;54.76;100988.16;5073663;28;20039;-55
2023/05/30 03:41:13;;;;;;;6.82;4.57;;;;;;;24.94;55.10;100995.25;5072777;28;20052;-57
2023/05/30 03:43:40;;;;;;;6.35;5.00;;;;;;;24.93;54.82;100997.13;5073384;28;20055;-57
2023/05/30 03:46:07;;;;;;;5.72;4.97;;;;;;;24.92;54.84;100998.97;5072948;28;20052;-57
2023/05/30 03:48:35;;;;;;;9.85;4.45;;;;;;;24.92;54.97;100996.28;5073003;28;20052;-57
2023/05/30 03:51:02;;;;;;;7.00;5.10;;;;;;;24.94;54.72;100989.84;5073969;28;20041;-55
2023/05/30 03:53:30;;;;;;;7.00;4.65;;;;;;;24.91;55.07;100994.59;5073080;28;20048;-55
2023/05/30 03:55:57;;;;;;;6.40;4.97;;;;;;;24.92;54.74;100998.97;5072791;28;20492;-55
2023/05/30 03:58:25;;;;;;;6.55;5.18;;;;;;;24.92;54.77;100998.97;5073576;28;20047;-55
2023/05/30 04:00:53;;;;;;;6.22;5.32;;;;;;;24.92;54.84;101000.84;5072711;28;20072;-55
2023/05/30 04:03:21;;;;;;;7.30;5.30;;;;;;;24.91;54.73;101005.44;5073763;28;20049;-53
2023/05/30 04:05:48;;;;;;;6.40;5.25;;;;;;;24.92;54.97;101011.69;5073803;28;20507;-54
2023/05/30 04:08:16;;;;;;;6.82;5.10;;;;;;;24.91;54.85;101008.13;5072130;28;20051;-55
2023/05/30 04:10:44;;;;;;;8.15;5.07;;;;;;;24.92;54.74;101003.56;5073323;28;20044;-54
2023/05/30 04:13:13;;;;;;;5.85;4.90;;;;;;;24.90;54.88;101001.00;5073357;28;20511;-55
2023/05/30 04:15:41;;;;;;;7.43;4.60;;;;;;;24.91;54.68;101005.44;5071899;28;20536;-54
2023/05/30 04:18:08;;;;;;;6.65;4.40;;;;;;;24.91;54.97;101013.53;5072166;28;20499;-56
2023/05/30 04:20:36;;;;;;;6.72;5.18;;;;;;;24.91;54.87;101008.13;5072769;28;20497;-55
2023/05/30 04:23:03;;;;;;;5.40;4.90;;;;;;;24.92;54.82;101006.25;5073462;28;20428;-55
2023/05/30 04:25:30;;;;;;;7.03;4.80;;;;;;;24.91;54.90;101012.66;5073442;28;20045;-55
2023/05/30 04:27:59;;;;;;;7.05;5.60;;;;;;;24.90;55.09;101011.81;5072507;28;20059;-55
2023/05/30 04:30:26;;;;;;;5.80;4.88;;;;;;;24.90;54.60;101013.69;5072216;28;20044;-57
2023/05/30 04:32:55;;;;;;;8.77;4.72;;;;;;;24.90;54.87;101016.41;5073362;28;20056;-57
2023/05/30 04:35:23;;;;;;;6.90;4.93;;;;;;;24.90;54.74;101022.66;5072436;28;20048;-57
2023/05/30 04:37:53;;;;;;;6.15;4.82;;;;;;;24.89;54.90;101017.41;5073559;28;20056;-57
2023/05/30 04:40:22;;;;;;;4.60;4.10;;;;;;;24.90;54.90;101019.09;5073117;28;20048;-56
2023/05/30 04:42:52;;;;;;;6.20;4.78;;;;;;;24.90;54.99;101019.94;5072326;28;20060;-57
2023/05/30 04:45:19;;;;;;;5.15;4.32;;;;;;;24.90;54.89;101019.94;5072652;28;20048;-57
2023/05/30 04:47:47;;;;;;;5.00;4.00;;;;;;;24.89;54.82;101020.13;5072250;28;20055;-56
2023/05/30 04:50:15;;;;;;;5.75;4.78;;;;;;;24.90;54.59;101013.69;5072713;28;20384;-57
2023/05/30 04:52:43;;;;;;;5.97;4.63;;;;;;;24.88;54.75;101013.88;5073157;28;20389;-57
2023/05/30 04:55:10;;;;;;;5.38;4.50;;;;;;;24.89;54.87;101014.72;5073090;28;20044;-57
2023/05/30 04:57:38;;;;;;;5.85;4.43;;;;;;;24.88;54.72;101021.16;5071977;28;20048;-57
2023/05/30 05:00:12;;;;;;;6.05;4.88;;;;;;;24.88;54.68;101022.00;5071770;28;20059;-55
2023/05/30 05:02:44;;;;;;;5.78;5.13;;;;;;;24.89;54.48;101022.84;5073183;28;20053;-54
2023/05/30 05:05:12;;;;;;;6.28;5.28;;;;;;;24.89;54.69;101025.53;5072839;28;20507;-55
2023/05/30 05:07:40;;;;;;;6.28;4.93;;;;;;;24.88;54.73;101022.00;5072713;28;20045;-54
2023/05/30 05:10:10;;;;;;;5.82;4.57;;;;;;;24.89;54.79;101025.53;5072903;28;20041;-54
2023/05/30 05:12:38;;;;;;;6.43;4.70;;;;;;;24.88;54.86;101032.81;5071893;28;20507;-55
2023/05/30 05:15:05;;;;;;;6.63;5.20;;;;;;;24.89;54.59;101033.66;5073042;28;20044;-55
2023/05/30 05:17:33;;;;;;;5.93;4.80;;;;;;;24.88;54.71;101021.16;5073075;28;20051;-55
2023/05/30 05:20:00;;;;;;;6.28;4.85;;;;;;;24.89;54.67;101033.66;5074593;28;20469;-56
2023/05/30 05:22:32;;;;;;;6.93;5.10;;;;;;;24.88;54.82;101027.41;5077207;28;20484;-55
2023/05/30 05:25:00;;;;;;;5.75;4.78;;;;;;;24.88;54.59;101023.84;5076380;28;20389;-55
2023/05/30 05:27:28;;;;;;;6.85;4.95;;;;;;;24.88;54.76;101032.81;5076541;28;20055;-55
2023/05/30 05:29:55;;;;;;;6.30;4.82;;;;;;;24.89;54.87;101030.97;5076359;28;20505;-56
2023/05/30 05:32:23;;;;;;;6.13;4.40;;;;;;;24.88;54.69;101035.53;5076866;28;20048;-57
2023/05/30 05:34:52;;;;;;;6.72;4.80;;;;;;;24.87;54.68;101031.13;5075060;28;20052;-57
2023/05/30 05:37:20;;;;;;;5.45;4.40;;;;;;;24.87;54.88;101041.97;5075924;28;20056;-57
2023/05/30 05:39:47;;;;;;;5.60;5.00;;;;;;;24.88;54.82;101043.66;5075963;28;20465;-57
2023/05/30 05:42:15;;;;;;;5.47;4.63;;;;;;;24.88;54.86;101042.81;5076143;28;20064;-57
2023/05/30 05:44:42;;;;;;;6.00;4.57;;;;;;;24.87;54.73;101024.84;5076146;28;20051;-57
2023/05/30 05:47:09;;;;;;;5.93;5.03;;;;;;;24.88;54.78;101040.09;5076194;28;20400;-57
2023/05/30 05:49:37;;;;;;;5.78;4.90;;;;;;;24.88;54.72;101038.25;5076081;28;20048;-57
2023/05/30 05:52:04;;;;;;;6.38;4.70;;;;;;;24.88;54.90;101031.97;5076257;28;20047;-56
2023/05/30 05:54:32;;;;;;;5.95;4.55;;;;;;;24.88;54.77;101037.41;5076511;28;20049;-56
2023/05/30 05:56:59;;;;;;;4.88;4.38;;;;;;;24.87;54.84;101036.56;5076071;28;20419;-54
2023/05/30 05:59:26;;;;;;;5.43;4.43;;;;;;;24.87;54.80;101033.84;5075687;28;20040;-55
2023/05/30 06:01:54;;;;;;;6.18;5.07;;;;;;;24.87;54.81;101041.09;5075958;28;20412;-55
2023/05/30 06:04:21;;;;;;;5.78;4.55;;;;;;;24.88;54.94;101037.41;5075544;28;20063;-55
2023/05/30 06:06:49;;;;;;;4.85;4.10;;;;;;;24.88;54.90;101043.66;5075412;28;20044;-55
2023/05/30 06:09:16;;;;;;;6.18;5.20;;;;;;;24.89;54.79;101049.91;5075871;28;20048;-53
2023/05/30 06:11:43;;;;;;;7.38;5.35;;;;;;;24.91;54.83;101050.59;5075967;28;20040;-57
2023/05/30 06:14:12;;;;;;;6.72;5.15;;;;;;;24.90;54.38;101048.91;5075511;28;20048;-57
2023/05/30 06:16:39;;;;;;;7.22;5.18;;;;;;;24.90;53.43;101046.19;5075818;28;20055;-57
2023/05/30 06:19:06;;;;;;;7.65;5.68;;;;;;;24.89;53.02;101058.03;5075234;28;20480;-57
2023/05/30 06:21:35;;;;;;;6.57;5.70;;;;;;;24.88;52.67;101059.91;5075415;28;20055;-57
2023/05/30 06:24:03;;;;;;;8.70;6.72;;;;;;;24.86;52.75;101048.38;5074320;28;20400;-57
2023/05/30 06:26:30;;;;;;;7.88;6.45;;;;;;;24.85;52.51;101053.97;5075339;28;20071;-57
2023/05/30 06:28:58;;;;;;;9.63;7.05;;;;;;;24.83;52.28;101054.13;5074914;28;20413;-57
2023/05/30 06:31:25;;;;;;;7.78;5.97;;;;;;;24.83;52.71;101054.13;5075122;28;20052;-56
2023/05/30 06:33:53;;;;;;;8.45;5.82;;;;;;;24.84;53.04;101053.13;5075939;28;20057;-56
2023/05/30 06:36:20;;;;;;;6.50;5.65;;;;;;;24.86;53.39;101058.38;5074115;28;20059;-56
2023/05/30 06:38:47;;;;;;;6.88;6.18;;;;;;;24.86;53.54;101053.78;5075488;28;20044;-56
2023/05/30 06:41:15;;;;;;;7.10;5.28;;;;;;;24.87;53.92;101051.94;5075489;28;20048;-57
2023/05/30 06:43:42;;;;;;;7.03;4.35;;;;;;;24.87;53.85;101055.50;5075204;28;20407;-58
2023/05/30 06:46:10;;;;;;;6.50;5.50;;;;;;;24.90;54.10;101059.72;5075319;28;20495;-57
2023/05/30 06:48:37;;;;;;;7.07;4.95;;;;;;;24.89;54.37;101056.19;5075202;28;20115;-57
2023/05/30 06:51:06;;;;;;;6.63;4.85;;;;;;;24.91;54.38;101061.41;5075263;28;20044;-57
2023/05/30 06:53:34;;;;;;;6.00;4.45;;;;;;;24.92;54.30;101052.31;5073722;28;20052;-57
2023/05/30 06:56:02;;;;;;;6.28;4.75;;;;;;;24.91;54.42;101056.88;5073906;28;20052;-57
2023/05/30 06:58:29;;;;;;;6.28;5.40;;;;;;;24.95;54.64;101057.38;5074866;28;20049;-57
2023/05/30 07:00:57;;;;;;;7.72;5.50;;;;;;;24.95;54.85;101054.66;5074951;28;20043;-56
2023/05/30 07:03:24;;;;;;;6.50;5.10;;;;;;;24.96;54.55;101045.56;5074953;28;20052;-56
2023/05/30 07:05:52;;;;;;;7.68;5.03;;;;;;;24.98;54.60;101043.50;5075316;28;20049;-56
2023/05/30 07:08:20;;;;;;;6.47;5.10;;;;;;;25.00;54.90;101056.91;5073356;28;20052;-56
2023/05/30 07:10:47;;;;;;;7.57;4.95;;;;;;;25.00;54.95;101057.75;5074550;28;20060;-57
2023/05/30 07:13:15;;;;;;;6.50;5.05;;;;;;;25.02;55.05;101053.00;5074346;28;20048;-58
2023/05/30 07:15:42;;;;;;;8.85;5.30;;;;;;;25.03;55.17;101060.13;5074564;28;20048;-59
2023/05/30 07:18:10;;;;;;;7.50;5.82;;;;;;;25.04;54.73;101058.28;5074604;28;20052;-59
2023/05/30 07:20:37;;;;;;;6.78;5.10;;;;;;;25.02;54.33;101061.13;5073672;28;20045;-58
2023/05/30 07:23:05;;;;;;;7.95;5.35;;;;;;;25.00;53.93;101052.34;5074067;28;20045;-59
2023/05/30 07:25:32;;;;;;;7.43;5.63;;;;;;;25.01;53.48;101048.59;5079555;28;20066;-59
2023/05/30 07:28:00;;;;;;;8.40;6.28;;;;;;;25.02;53.07;101052.16;5093345;28;20048;-58
2023/05/30 07:30:27;;;;;;;6.55;5.45;;;;;;;25.02;52.58;101047.59;5094448;28;20476;-57
2023/05/30 07:32:54;;;;;;;6.53;5.60;;;;;;;25.03;52.29;101051.97;5094324;28;20048;-57
2023/05/30 07:35:22;;;;;;;8.18;5.65;;;;;;;25.00;52.43;101049.63;5094096;28;20036;-57
2023/05/30 07:37:52;;;;;;;7.43;5.68;;;;;;;24.98;51.80;101054.34;5094249;28;20392;-57
2023/05/30 07:40:20;;;;;;;7.47;5.20;;;;;;;24.97;51.47;101057.22;5094283;28;20051;-57
2023/05/30 07:42:47;;;;;;;8.00;6.10;;;;;;;24.95;51.06;101057.38;5093930;28;20044;-57
2023/05/30 07:45:15;;;;;;;6.50;5.80;;;;;;;24.92;51.16;101050.44;5093985;28;20044;-57
2023/05/30 07:47:42;;;;;;;9.02;5.70;;;;;;;24.91;51.00;101053.28;5093859;28;20036;-57
2023/05/30 07:50:10;;;;;;;10.60;6.32;;;;;;;24.89;50.70;101047.22;5093628;28;20047;-57
2023/05/30 07:52:37;;;;;;;6.88;5.82;;;;;;;24.88;50.72;101050.94;5093381;28;20040;-57
2023/05/30 07:55:05;;;;;;;8.57;6.40;;;;;;;24.87;50.67;101055.50;5093495;28;20044;-57
2023/05/30 07:57:32;;;;;;;8.40;5.82;;;;;;;24.89;50.77;101049.91;5093480;28;20055;-57
2023/05/30 07:59:59;;;;;;;9.48;5.28;;;;;;;24.92;50.98;101053.16;5092327;28;20051;-58
2023/05/30 08:02:37;;;;;;;9.57;5.88;;;;;;;24.96;51.53;101050.97;5100843;28;20064;-57
2023/05/30 08:05:05;;;;;;;7.53;5.65;;;;;;;25.00;51.52;101046.06;5093935;28;20050;-57
2023/05/30 08:07:32;;;;;;;6.85;5.13;;;;;;;25.04;51.67;101052.88;5093534;28;20044;-57
2023/05/30 08:09:59;;;;;;;7.80;5.57;;;;;;;25.06;51.99;101042.69;5093125;28;20048;-58
2023/05/30 08:12:29;;;;;;;6.22;5.50;;;;;;;25.09;52.28;101048.66;5093393;28;20365;-59
2023/05/30 08:14:57;;;;;;;6.85;5.57;;;;;;;25.10;51.95;101042.22;5093517;28;20040;-59
2023/05/30 08:17:25;;;;;;;8.13;5.68;;;;;;;25.12;52.07;101042.94;5093138;28;20368;-59
2023/05/30 08:19:53;;;;;;;7.35;5.78;;;;;;;25.17;52.07;101052.41;5093292;28;20495;-59
2023/05/30 08:22:23;;;;;;;8.45;5.55;;;;;;;25.17;52.37;101047.84;5093238;28;20040;-58
2023/05/30 08:24:55;;;;;;;7.47;5.35;;;;;;;25.19;52.26;101039.53;5093140;28;20047;-59
2023/05/30 08:27:23;;;;;;;7.00;5.32;;;;;;;25.22;52.30;101052.75;5093173;28;20052;-59
2023/05/30 08:29:50;;;;;;;6.75;4.88;;;;;;;25.23;52.59;101051.75;5093411;28;20052;-58
2023/05/30 08:32:18;;;;;;;7.85;5.20;;;;;;;25.24;52.25;101048.00;5093313;28;20044;-58
2023/05/30 08:34:45;;;;;;;6.20;5.55;;;;;;;25.25;52.28;101050.56;5092271;28;20048;-58
2023/05/30 08:37:13;;;;;;;6.55;5.03;;;;;;;25.26;52.09;101043.28;5092828;28;20052;-58
2023/05/30 08:39:41;;;;;;;7.28;5.20;;;;;;;25.26;52.36;101044.13;5091542;28;20074;-58
2023/05/30 08:42:09;;;;;;;7.85;5.32;;;;;;;25.28;52.11;101043.97;5092084;28;20420;-58
2023/05/30 08:44:36;;;;;;;6.45;5.43;;;;;;;25.29;51.87;101045.69;5092809;28;20051;-59
2023/05/30 08:47:11;;;;;;;8.10;5.45;;;;;;;25.29;51.91;101043.81;5092585;28;20044;-59
2023/05/30 08:49:43;;;;;;;8.18;5.47;;;;;;;25.29;51.92;101038.41;5093172;28;20071;-59
2023/05/30 08:52:13;;;;;;;6.18;4.93;;;;;;;25.30;51.72;101040.06;5093161;28;20334;-58
2023/05/30 08:54:47;;;;;;;6.38;5.13;;;;;;;25.31;51.79;101040.94;5095777;28;20052;-58
2023/05/30 08:57:20;;;;;;;6.97;5.38;;;;;;;25.30;51.59;101041.94;5096868;28;20051;-58
2023/05/30 08:59:49;;;;;;;6.43;5.15;;;;;;;25.27;51.25;101042.28;5097164;28;20048;-58
2023/05/30 09:02:20;;;;;;;12.52;6.07;;;;;;;25.29;51.17;101045.69;5096590;28;20036;-59
2023/05/30 09:04:50;;;;;;;8.10;6.18;;;;;;;25.25;50.76;101036.19;5095620;28;20052;-58
2023/05/30 09:07:20;;;;;;;6.78;5.15;;;;;;;25.23;50.71;101040.91;5096427;28;20412;-58
2023/05/30 09:09:49;;;;;;;9.40;6.13;;;;;;;25.21;50.65;101040.25;5096692;28;20062;-58
2023/05/30 09:12:17;;;;;;;8.65;5.57;;;;;;;25.17;50.73;101038.88;5096866;28;20055;-59
2023/05/30 09:14:44;;;;;;;7.95;5.63;;;;;;;25.15;50.80;101042.56;5096653;28;20479;-58
2023/05/30 09:17:12;;;;;;;9.07;5.63;;;;;;;25.15;50.86;101033.59;5096831;28;20059;-59
2023/05/30 09:19:39;;;;;;;6.90;4.97;;;;;;;25.17;51.10;101031.59;5096758;28;20406;-59
2023/05/30 09:22:07;;;;;;;6.18;4.65;;;;;;;25.19;50.97;101026.00;5096313;28;20047;-58
2023/05/30 09:24:55;;;;;;;7.38;5.43;;;;;;;25.20;51.10;101019.56;5097149;28;20051;-58
2023/05/30 09:27:22;;;;;;;6.40;5.55;;;;;;;25.23;51.26;101024.66;5096609;28;20048;-59
2023/05/30 09:29:50;;;;;;;7.07;5.28;;;;;;;25.24;51.24;101020.91;5096528;28;20051;-58
2023/05/30 09:32:20;;;;;;;6.25;5.20;;;;;;;25.26;50.96;101027.03;5096382;28;20496;-58
2023/05/30 09:34:56;;;;;;;8.23;6.50;;;;;;;25.24;50.94;101032.63;5096285;28;20392;-58
2023/05/30 09:37:25;;;;;;;8.98;6.35;;;;;;;25.21;50.66;101032.13;5096006;28;20052;-59
2023/05/30 09:40:23;;;;;;;7.78;5.15;;;;;;;25.18;50.62;101027.84;5095898;28;20044;-58
2023/05/30 09:42:53;;;;;;;8.20;5.93;;;;;;;25.19;50.49;101028.69;5078933;28;20052;-58
2023/05/30 09:45:25;;;;;;;7.88;5.88;;;;;;;25.20;50.78;101025.84;5075627;28;20051;-58
2023/05/30 09:47:52;;;;;;;6.95;5.50;;;;;;;25.22;51.00;101028.38;5092700;28;20518;-58
2023/05/30 09:50:24;;;;;;;7.20;5.97;;;;;;;25.23;51.07;101027.34;5095538;28;20044;-58
2023/05/30 09:52:51;;;;;;;6.68;5.30;;;;;;;25.25;51.27;101025.34;5094372;28;20039;-58
2023/05/30 09:55:20;;;;;;;8.60;5.97;;;;;;;25.24;51.21;101032.63;5095850;28;20051;-58
2023/05/30 09:57:52;;;;;;;7.35;5.63;;;;;;;25.26;51.18;101041.44;5095661;28;20513;-58
2023/05/30 10:00:25;;;;;;;5.85;5.15;;;;;;;25.28;51.09;101035.84;5095815;28;20047;-58
2023/05/30 10:02:54;;;;;;;8.00;5.68;;;;;;;25.29;51.11;101026.72;5095405;28;20055;-58
2023/05/30 10:05:26;;;;;;;6.10;5.05;;;;;;;25.29;51.04;101026.72;5095137;28;20052;-59
2023/05/30 10:07:55;;;;;;;7.57;5.90;;;;;;;25.29;51.08;101019.41;5095956;28;20044;-58
2023/05/30 10:10:23;;;;;;;7.45;6.25;;;;;;;25.30;51.01;101014.84;5094470;28;20051;-58
2023/05/30 10:12:57;;;;;;;8.32;5.78;;;;;;;25.29;50.98;101014.00;5095744;28;20495;-59
2023/05/30 10:15:25;;;;;;;6.95;5.18;;;;;;;25.31;50.94;101021.94;5095942;28;20055;-59
2023/05/30 10:17:58;;;;;;;7.57;5.40;;;;;;;25.32;50.99;101015.50;5094506;28;20048;-58
2023/05/30 10:20:27;;;;;;;6.67;5.27;;;;;;;25.32;51.00;101023.66;5095528;28;20040;-59
2023/05/30 10:22:56;;;;;;;8.75;5.72;;;;;;;25.31;50.98;101016.53;5095130;28;20304;-58
2023/05/30 10:25:26;;;;;;;6.78;5.43;;;;;;;25.31;51.10;101005.69;5095428;28;20049;-58
2023/05/30 10:27:57;;;;;;;6.32;5.22;;;;;;;25.33;51.29;101000.97;5095232;28;20051;-58
2023/05/30 10:30:30;;;;;;;5.93;5.03;;;;;;;25.32;51.19;101000.13;5094026;28;20052;-58
2023/05/30 10:33:10;;;;;;;7.50;5.55;;;;;;;25.33;51.16;100998.25;5095061;28;20040;-58
2023/05/30 10:35:38;;;;;;;9.30;5.30;;;;;;;25.33;51.35;100998.25;5095198;28;20052;-57
2023/05/30 10:38:08;;;;;;;6.75;5.38;;;;;;;25.33;53.06;100993.69;5095006;28;20052;-59
2023/05/30 10:41:03;;;;;;;7.13;5.28;;;;;;;25.32;53.48;100997.41;5095309;28;20044;-58
2023/05/30 10:43:47;;;;;;;6.57;5.50;;;;;;;25.30;53.87;100996.72;5095034;28;20036;-59
2023/05/30 10:46:29;;;;;;;7.15;5.43;;;;;;;25.31;54.79;101002.97;5094757;28;20051;-59
2023/05/30 10:49:10;;;;;;;6.28;5.35;;;;;;;25.29;55.34;100999.59;5074958;28;20052;-58
2023/05/30 10:52:06;;;;;;;6.72;5.72;;;;;;;25.28;55.33;100989.75;5077619;28;20051;-59
2023/05/30 10:54:35;;;;;;;6.68;5.30;;;;;;;25.26;55.48;100991.81;5095145;28;20056;-59
2023/05/30 10:57:28;;;;;;;6.45;5.30;;;;;;;25.25;55.60;100990.13;5094728;28;20036;-59
2023/05/30 11:00:05;;;;;;;7.05;5.60;;;;;;;25.24;55.96;100988.41;5094869;28;20047;-58
2023/05/30 11:02:37;;;;;;;5.70;4.80;;;;;;;25.22;55.82;100985.88;5093609;28;20051;-58
2023/05/30 11:05:09;;;;;;;;;;;;;;;25.22;55.81;100995.88;5093423;28;20044;-59
2023/05/30 11:07:38;;;;;;;5.43;4.80;;;;;;;25.22;55.59;100982.31;5085941;28;20386;-59
2023/05/30 11:10:07;;;;;;;6.85;5.05;;;;;;;25.21;55.40;100983.34;5094115;28;20122;-58
2023/05/30 11:12:44;;;;;;;7.20;5.00;;;;;;;25.20;55.38;100977.06;5094231;28;20044;-58
2023/05/30 11:15:16;;;;;;;5.80;4.80;;;;;;;25.21;55.46;100975.22;5094040;28;20416;-58
2023/05/30 11:17:44;;;;;;;7.18;5.53;;;;;;;25.21;55.74;100969.78;5092166;28;20551;-59
2023/05/30 11:20:14;;;;;;;7.00;5.57;;;;;;;25.21;55.96;100970.63;5093976;28;20067;-57
2023/05/30 11:23:00;;;;;;;5.60;4.65;;;;;;;25.20;55.96;100970.78;5094020;28;20114;-58
2023/05/30 11:25:30;;;;;;;6.63;4.72;;;;;;;25.20;56.09;100968.06;5094157;28;20052;-58
2023/05/30 11:28:03;;;;;;;6.63;4.68;;;;;;;25.20;56.13;100959.94;5094230;28;20044;-58
2023/05/30 11:30:33;;;;;;;6.05;4.72;;;;;;;25.20;56.37;100960.81;5094321;28;20403;-57
2023/05/30 11:33:01;;;;;;;7.85;5.10;;;;;;;25.20;56.62;100954.53;5093828;28;20047;-57
2023/05/30 11:35:31;;;;;;;7.50;4.90;;;;;;;25.20;56.89;100946.41;5077937;28;20048;-57
2023/05/30 11:38:00;;;;;;;7.50;4.85;;;;;;;25.20;56.89;100949.09;5074077;28;20481;-57
2023/05/30 11:40:28;;;;;;;6.93;4.55;;;;;;;25.19;57.20;100950.13;5074109;28;20050;-57